Time;durP1;ratioP1;P1;durP2;ratioP2;P2;SDS_P1;SDS_P2;PMS_P1;PMS_P2;Temp;Humidity;BMP_temperature;BMP_pressure;BME280_temperature;BME280_humidity;BME280_pressure;Samples;Min_cycle;Max_cycle;Signal;HPM_P1;HPM_P2
2021/06/26 00:07:23;;;;;;;0.77;0.60;;;21.20;99.90;;;;;;20984396;28;20643;-65
2021/06/26 00:17:28;;;;;;;0.23;0.20;;;21.00;99.90;;;;;;20983831;28;20546;-64
2021/06/26 00:27:32;;;;;;;0.43;0.23;;;20.90;99.90;;;;;;20982996;28;20221;-64
2021/06/26 00:37:37;;;;;;;1.60;0.47;;;20.90;99.90;;;;;;20964598;28;20270;-63
2021/06/26 00:47:41;;;;;;;0.93;0.50;;;20.70;99.90;;;;;;20983635;28;20551;-65
2021/06/26 00:57:50;;;;;;;0.20;0.20;;;20.70;99.90;;;;;;20963144;28;20252;-66
2021/06/26 01:07:53;;;;;;;0.20;0.10;;;20.70;99.90;;;;;;20989293;28;20239;-65
2021/06/26 01:17:58;;;;;;;0.30;0.20;;;20.70;99.90;;;;;;20997008;28;20255;-65
2021/06/26 01:28:04;;;;;;;0.20;0.20;;;20.70;99.90;;;;;;20995836;28;20208;-64
2021/06/26 01:38:08;;;;;;;0.20;0.10;;;20.60;99.90;;;;;;20996179;28;20248;-65
2021/06/26 01:48:13;;;;;;;0.20;0.20;;;20.50;99.90;;;;;;20994655;28;20228;-64
2021/06/26 01:58:16;;;;;;;0.20;0.13;;;20.50;99.90;;;;;;20993341;28;20231;-64
2021/06/26 02:08:21;;;;;;;0.20;0.17;;;20.50;99.90;;;;;;20993479;28;20260;-64
2021/06/26 02:18:25;;;;;;;1.13;0.50;;;20.50;99.90;;;;;;20991152;28;20224;-64
2021/06/26 02:28:30;;;;;;;0.40;0.23;;;20.50;99.90;;;;;;20991375;28;20716;-65
2021/06/26 02:38:34;;;;;;;0.20;0.10;;;20.40;99.90;;;;;;20989599;28;20260;-65
2021/06/26 02:48:38;;;;;;;0.63;0.50;;;20.40;99.90;;;;;;20972616;28;20287;-64
2021/06/26 02:58:42;;;;;;;0.60;0.50;;;20.20;99.90;;;;;;20988885;28;20221;-65
2021/06/26 03:08:51;;;;;;;0.77;0.77;;;20.20;99.90;;;;;;20987839;28;20677;-64
2021/06/26 03:18:55;;;;;;;0.20;0.10;;;20.10;99.90;;;;;;20987398;28;20244;-64
2021/06/26 03:29:00;;;;;;;0.63;0.63;;;20.10;99.90;;;;;;20985450;28;20197;-64
2021/06/26 03:39:03;;;;;;;0.70;0.40;;;20.00;99.90;;;;;;20967481;28;20240;-64
2021/06/26 03:49:08;;;;;;;0.20;0.20;;;19.90;99.90;;;;;;20985233;28;20209;-64
2021/06/26 03:59:12;;;;;;;0.47;0.40;;;19.90;99.90;;;;;;20985998;28;20320;-64
2021/06/26 04:09:17;;;;;;;0.30;0.30;;;19.90;99.90;;;;;;20984459;28;20227;-66
2021/06/26 04:19:20;;;;;;;0.53;0.53;;;19.90;99.90;;;;;;20965754;28;20319;-66
2021/06/26 04:29:26;;;;;;;0.33;0.33;;;19.90;99.90;;;;;;20983779;28;20729;-65
2021/06/26 04:39:29;;;;;;;0.53;0.47;;;19.90;99.90;;;;;;20984996;28;20235;-64
2021/06/26 04:49:36;;;;;;;0.47;0.47;;;20.10;99.90;;;;;;20998945;28;20224;-64
2021/06/26 04:59:39;;;;;;;0.83;0.67;;;20.10;99.90;;;;;;20998307;28;20225;-64
2021/06/26 05:09:44;;;;;;;0.20;0.10;;;20.10;99.90;;;;;;20997219;28;20196;-64
2021/06/26 05:19:48;;;;;;;0.57;0.57;;;20.30;99.90;;;;;;20996973;28;20220;-65
2021/06/26 05:29:53;;;;;;;0.63;0.63;;;20.50;99.90;;;;;;20994848;28;20199;-64
2021/06/26 05:39:57;;;;;;;0.30;0.20;;;20.70;99.90;;;;;;20977217;28;20226;-64
2021/06/26 05:50:02;;;;;;;0.50;0.30;;;20.90;99.90;;;;;;20994089;28;20203;-64
2021/06/26 06:00:07;;;;;;;13.57;0.70;;;21.10;99.90;;;;;;20992198;28;20231;-62
2021/06/26 06:10:14;;;;;;;0.77;0.43;;;21.40;99.90;;;;;;20992167;28;20219;-65
2021/06/26 06:20:18;;;;;;;14.63;1.17;;;21.90;99.90;;;;;;20990870;28;20260;-65
2021/06/26 06:30:24;;;;;;;0.20;0.20;;;22.20;99.90;;;;;;20990153;28;20193;-65
2021/06/26 06:40:27;;;;;;;1.33;0.43;;;22.70;99.90;;;;;;20953913;28;20224;-64
2021/06/26 06:50:33;;;;;;;1.37;1.17;;;22.90;99.90;;;;;;20988273;28;20223;-64
2021/06/26 07:00:36;;;;;;;1.80;1.17;;;23.00;99.90;;;;;;20969101;28;20229;-64
2021/06/26 07:10:42;;;;;;;0.50;0.50;;;23.00;99.90;;;;;;20967535;28;20283;-65
2021/06/26 07:20:46;;;;;;;0.80;0.67;;;23.10;99.90;;;;;;20984923;28;20224;-65
2021/06/26 07:30:51;;;;;;;4.07;0.40;;;23.30;99.90;;;;;;20965583;28;20193;-64
2021/06/26 07:40:55;;;;;;;0.53;0.27;;;23.10;99.90;;;;;;20962093;28;20235;-65
2021/06/26 07:51:00;;;;;;;0.67;0.40;;;23.10;99.90;;;;;;20981603;28;20188;-65
2021/06/26 08:01:05;;;;;;;0.47;0.30;;;23.00;99.90;;;;;;20978927;28;20335;-65
2021/06/26 08:11:09;;;;;;;0.60;0.22;;;23.20;99.90;;;;;;20980689;28;20218;-65
2021/06/26 08:21:13;;;;;;;0.40;0.38;;;23.40;99.90;;;;;;20979950;28;20220;-65
2021/06/26 08:31:18;;;;;;;1.17;0.65;;;23.70;99.90;;;;;;20980469;28;20192;-64
2021/06/26 08:41:22;;;;;;;2.60;0.60;;;24.00;99.90;;;;;;20962321;28;20216;-64
2021/06/26 08:51:27;;;;;;;0.77;0.50;;;24.10;99.90;;;;;;20979112;28;20195;-65
2021/06/26 09:01:31;;;;;;;0.22;0.22;;;24.10;99.90;;;;;;20960715;28;20741;-65
2021/06/26 09:11:36;;;;;;;0.50;0.35;;;24.20;99.90;;;;;;20979179;28;20201;-65
2021/06/26 09:21:39;;;;;;;0.20;0.10;;;24.30;99.90;;;;;;20978170;28;20315;-64
2021/06/26 09:31:51;;;;;;;0.45;0.20;;;24.10;99.90;;;;;;20988829;28;20196;-64
2021/06/26 09:41:55;;;;;;;0.35;0.10;;;24.70;99.90;;;;;;20990373;28;20318;-62
2021/06/26 09:52:01;;;;;;;0.20;0.03;;;25.00;99.90;;;;;;20990098;28;20181;-64
2021/06/26 10:02:05;;;;;;;0.45;0.17;;;24.90;99.90;;;;;;20972069;28;20252;-63
2021/06/26 10:12:11;;;;;;;0.90;0.60;;;25.20;99.90;;;;;;20988437;28;20269;-63
2021/06/26 10:22:18;;;;;;;3.72;1.05;;;25.40;99.90;;;;;;20970328;28;20680;-65
2021/06/26 10:32:23;;;;;;;0.40;0.28;;;25.90;99.90;;;;;;20969993;28;20224;-63
2021/06/26 10:42:33;;;;;;;0.43;0.30;;;26.10;99.90;;;;;;20967954;28;20232;-64
2021/06/26 10:52:48;;;;;;;1.88;0.68;;;26.20;99.90;;;;;;20986596;28;20215;-66
2021/06/26 11:02:52;;;;;;;1.02;0.47;;;26.30;99.90;;;;;;20984639;28;20713;-64
2021/06/26 11:12:57;;;;;;;0.52;0.52;;;26.40;99.90;;;;;;20984735;28;20556;-64
2021/06/26 11:23:02;;;;;;;0.40;0.30;;;26.60;99.90;;;;;;20983735;28;20217;-65
2021/06/26 11:33:07;;;;;;;0.95;0.68;;;26.80;99.90;;;;;;20965330;28;20719;-64
2021/06/26 11:43:12;;;;;;;0.65;0.40;;;27.90;99.90;;;;;;20982171;28;20266;-64
2021/06/26 11:53:21;;;;;;;1.20;0.88;;;28.00;99.90;;;;;;20979705;28;20200;-64
2021/06/26 12:03:24;;;;;;;1.30;0.65;;;29.50;99.90;;;;;;20980385;28;20319;-64
2021/06/26 12:13:29;;;;;;;1.65;0.45;;;30.20;99.90;;;;;;20980378;28;20760;-64
2021/06/26 12:23:44;;;;;;;0.50;0.45;;;28.70;99.90;;;;;;20961546;28;20224;-65
2021/06/26 12:34:00;;;;;;;0.45;0.40;;;29.00;99.90;;;;;;20981095;28;20192;-64
2021/06/26 12:44:04;;;;;;;4.70;2.25;;;30.30;99.90;;;;;;20980330;28;20221;-63
2021/06/26 12:54:10;;;;;;;0.40;0.28;;;29.50;99.90;;;;;;20980158;28;20204;-64
2021/06/26 13:04:16;;;;;;;3.03;1.00;;;30.00;99.90;;;;;;20986418;28;20232;-65
2021/06/26 13:14:21;;;;;;;0.65;0.55;;;29.30;99.90;;;;;;20995041;28;20677;-64
2021/06/26 13:24:24;;;;;;;1.27;0.50;;;28.70;99.90;;;;;;20993176;28;20675;-63
2021/06/26 13:34:29;;;;;;;0.52;0.40;;;29.60;99.90;;;;;;20993436;28;20203;-64
2021/06/26 13:44:33;;;;;;;0.90;0.55;;;30.30;99.90;;;;;;20976080;28;20228;-62
2021/06/26 13:54:40;;;;;;;0.90;0.65;;;31.70;99.90;;;;;;20991940;28;20621;-64
2021/06/26 14:04:43;;;;;;;1.08;0.65;;;32.20;99.90;;;;;;20991678;28;20243;-64
2021/06/26 14:14:52;;;;;;;0.30;0.20;;;31.20;99.90;;;;;;20990046;28;20200;-64
2021/06/26 14:24:56;;;;;;;1.90;0.60;;;31.10;99.90;;;;;;20990685;28;20228;-64
2021/06/26 14:35:02;;;;;;;0.35;0.20;;;30.60;99.90;;;;;;20989806;28;20185;-64
2021/06/26 14:45:07;;;;;;;1.20;0.82;;;31.40;99.90;;;;;;20988670;28;20229;-64
2021/06/26 14:55:14;;;;;;;0.98;0.60;;;29.60;99.90;;;;;;20986969;28;20284;-65
2021/06/26 15:05:17;;;;;;;0.38;0.35;;;29.00;99.90;;;;;;20985936;28;20250;-66
2021/06/26 15:15:22;;;;;;;0.50;0.40;;;29.30;99.90;;;;;;20966903;28;20662;-64
2021/06/26 15:25:26;;;;;;;0.35;0.35;;;28.90;99.90;;;;;;20965680;28;20234;-64
2021/06/26 15:35:31;;;;;;;4.03;0.80;;;29.50;99.90;;;;;;20983844;28;20208;-64
2021/06/26 15:45:35;;;;;;;0.40;0.38;;;29.90;99.90;;;;;;20982610;28;20335;-64
2021/06/26 15:55:42;;;;;;;0.63;0.40;;;29.60;99.90;;;;;;20964798;28;20680;-65
2021/06/26 16:05:46;;;;;;;0.30;0.30;;;27.70;99.90;;;;;;20963089;28;20232;-65
2021/06/26 16:15:52;;;;;;;2.78;0.55;;;27.60;99.90;;;;;;20962433;28;20203;-64
2021/06/26 16:25:55;;;;;;;0.20;0.20;;;27.30;99.90;;;;;;20979923;28;20311;-66
2021/06/26 16:36:03;;;;;;;0.57;0.40;;;26.60;99.90;;;;;;20983102;28;20290;-63
2021/06/26 16:46:08;;;;;;;0.35;0.30;;;26.70;99.90;;;;;;20997043;28;20220;-64
2021/06/26 16:56:13;;;;;;;0.60;0.40;;;26.70;99.90;;;;;;20994687;28;20200;-65
2021/06/26 17:06:17;;;;;;;0.70;0.57;;;26.50;99.90;;;;;;20995354;28;20242;-64
2021/06/26 17:16:22;;;;;;;1.20;0.70;;;26.00;99.90;;;;;;20993070;28;20295;-64
2021/06/26 17:26:26;;;;;;;1.25;0.55;;;25.60;99.90;;;;;;20974996;28;20312;-65
2021/06/26 17:36:31;;;;;;;2.40;0.40;;;25.30;99.90;;;;;;20993327;28;20280;-67
2021/06/26 17:46:34;;;;;;;0.55;0.50;;;25.10;99.90;;;;;;20990962;28;20267;-65
2021/06/26 17:56:40;;;;;;;0.68;0.32;;;25.40;99.90;;;;;;20991120;28;20201;-65
2021/06/26 18:06:43;;;;;;;0.85;0.60;;;25.40;99.90;;;;;;20989814;28;20283;-66
2021/06/26 18:16:48;;;;;;;0.32;0.30;;;25.00;99.90;;;;;;20988839;28;20185;-65
2021/06/26 18:26:52;;;;;;;0.30;0.30;;;25.20;99.90;;;;;;20988902;28;20658;-65
2021/06/26 18:36:57;;;;;;;2.55;1.20;;;24.90;99.90;;;;;;20988614;28;20551;-65
2021/06/26 18:47:01;;;;;;;0.88;0.40;;;24.70;99.90;;;;;;20985489;28;20188;-66
2021/06/26 18:57:07;;;;;;;0.35;0.32;;;24.20;99.90;;;;;;20969084;28;20205;-66
2021/06/26 19:07:10;;;;;;;0.55;0.25;;;24.00;99.90;;;;;;20983223;28;20235;-65
2021/06/26 19:17:15;;;;;;;0.40;0.15;;;24.30;99.90;;;;;;20984469;28;20197;-65
2021/06/26 19:27:19;;;;;;;1.92;1.52;;;24.00;99.90;;;;;;20984590;28;20199;-64
2021/06/26 19:37:24;;;;;;;1.90;1.65;;;24.00;99.90;;;;;;20963714;28;20315;-63
2021/06/26 19:47:28;;;;;;;2.90;1.00;;;24.00;99.90;;;;;;20981525;28;20434;-65
2021/06/26 19:57:33;;;;;;;0.80;0.77;;;23.80;99.90;;;;;;20982414;28;20222;-65
2021/06/26 20:07:37;;;;;;;0.60;0.60;;;23.70;99.90;;;;;;20981774;28;20669;-68
2021/06/26 20:17:42;;;;;;;0.20;0.20;;;23.70;99.90;;;;;;20980989;28;20296;-65
2021/06/26 20:27:46;;;;;;;1.65;0.43;;;23.70;99.90;;;;;;20979979;28;20654;-65
2021/06/26 20:37:51;;;;;;;0.73;0.63;;;23.60;99.90;;;;;;20980192;28;20306;-65
2021/06/26 20:47:54;;;;;;;5.60;1.38;;;23.60;99.90;;;;;;20979728;28;20545;-66
2021/06/26 20:58:00;;;;;;;2.50;0.87;;;23.80;99.90;;;;;;20979616;28;20359;-66
2021/06/26 21:08:04;;;;;;;0.75;0.73;;;23.40;99.90;;;;;;20978110;28;20259;-65
2021/06/26 21:18:09;;;;;;;1.30;0.50;;;23.40;99.90;;;;;;20979266;28;20252;-65
2021/06/26 21:28:12;;;;;;;1.50;0.68;;;23.50;99.90;;;;;;20990556;28;20201;-64
2021/06/26 21:38:17;;;;;;;4.47;0.90;;;23.50;99.90;;;;;;20994160;28;20307;-66
2021/06/26 21:48:21;;;;;;;6.63;1.63;;;23.40;99.90;;;;;;20975338;28;20291;-64
2021/06/26 21:58:26;;;;;;;0.40;0.40;;;23.80;99.90;;;;;;20974533;28;20319;-64
2021/06/26 22:08:29;;;;;;;1.05;0.77;;;23.80;99.90;;;;;;20992368;28;20348;-63
2021/06/26 22:18:37;;;;;;;0.40;0.40;;;23.80;99.90;;;;;;20990270;28;20216;-65
2021/06/26 22:28:41;;;;;;;0.63;0.40;;;23.90;99.90;;;;;;20989785;28;20232;-64
2021/06/26 22:38:46;;;;;;;0.73;0.35;;;23.90;99.90;;;;;;20989099;28;20757;-65
2021/06/26 22:48:49;;;;;;;4.95;0.93;;;24.00;99.90;;;;;;20989079;28;20203;-64
2021/06/26 22:58:54;;;;;;;0.57;0.47;;;23.50;99.90;;;;;;20987653;28;20256;-64
2021/06/26 23:08:58;;;;;;;2.95;0.68;;;23.30;99.90;;;;;;20987542;28;20652;-65
2021/06/26 23:19:03;;;;;;;0.93;0.50;;;23.30;99.90;;;;;;20986748;28;20308;-65
2021/06/26 23:29:07;;;;;;;1.25;0.50;;;23.20;99.90;;;;;;20903722;28;20319;-64
2021/06/26 23:39:12;;;;;;;1.07;0.60;;;22.90;99.90;;;;;;20884614;28;20225;-65
2021/06/26 23:49:17;;;;;;;0.50;0.30;;;22.90;99.90;;;;;;20902225;28;20219;-65
2021/06/26 23:59:23;;;;;;;0.77;0.30;;;22.70;99.90;;;;;;20903127;28;20232;-65
